createdAt,value
2018-03-22T00:00:25.458Z,-0.60
2018-03-22T00:02:52.636Z,-0.50
2018-03-22T00:05:19.931Z,-0.50
2018-03-22T00:07:46.363Z,-0.40
2018-03-22T00:10:12.810Z,-0.40
2018-03-22T00:12:39.221Z,-0.40
2018-03-22T00:15:05.603Z,-0.30
2018-03-22T00:17:32.022Z,-0.30
2018-03-22T00:19:58.434Z,-0.30
2018-03-22T00:22:37.075Z,-0.40
2018-03-22T00:25:04.250Z,-0.40
2018-03-22T00:27:31.468Z,-0.40
2018-03-22T00:29:57.859Z,-0.40
2018-03-22T00:32:24.249Z,-0.40
2018-03-22T00:34:50.649Z,-0.40
2018-03-22T00:37:17.061Z,-0.50
2018-03-22T00:39:43.513Z,-0.40
2018-03-22T00:42:09.867Z,-0.40
2018-03-22T00:44:36.284Z,-0.40
2018-03-22T00:47:02.682Z,-0.40
2018-03-22T00:49:29.151Z,-0.40
2018-03-22T00:51:55.556Z,-0.40
2018-03-22T00:54:21.951Z,-0.50
2018-03-22T00:56:48.341Z,-0.50
2018-03-22T00:59:14.738Z,-0.50
2018-03-22T01:01:41.104Z,-0.50
2018-03-22T01:04:07.513Z,-0.40
2018-03-22T01:06:33.871Z,-0.50
2018-03-22T01:09:00.282Z,-0.40
2018-03-22T01:11:26.672Z,-0.50
2018-03-22T01:13:53.462Z,-0.50
2018-03-22T01:16:19.841Z,-0.60
2018-03-22T01:18:46.239Z,-0.60
2018-03-22T01:21:12.673Z,-0.50
2018-03-22T01:23:39.185Z,-0.60
2018-03-22T01:26:05.566Z,-0.50
2018-03-22T01:28:31.972Z,-0.50
2018-03-22T01:30:58.416Z,-0.50
2018-03-22T01:33:25.559Z,-0.60
2018-03-22T01:35:52.087Z,-0.60
2018-03-22T01:38:18.453Z,-0.60
2018-03-22T01:40:44.852Z,-0.60
2018-03-22T01:43:11.205Z,-0.60
2018-03-22T01:45:37.628Z,-0.60
2018-03-22T01:48:04.775Z,-0.70
2018-03-22T01:50:31.205Z,-0.70
2018-03-22T01:53:12.828Z,-0.70
2018-03-22T01:55:39.293Z,-0.70
2018-03-22T01:58:05.754Z,-0.70
2018-03-22T02:00:32.148Z,-0.70
2018-03-22T02:02:58.585Z,-0.70
2018-03-22T02:05:24.981Z,-0.70
2018-03-22T02:07:51.325Z,-0.70
2018-03-22T02:10:17.745Z,-0.80
2018-03-22T02:12:44.102Z,-0.80
2018-03-22T02:15:10.542Z,-0.80
2018-03-22T02:17:36.943Z,-0.80
2018-03-22T02:20:03.384Z,-0.80
2018-03-22T02:22:29.804Z,-0.80
2018-03-22T02:24:56.201Z,-0.90
2018-03-22T02:27:23.361Z,-1.00
2018-03-22T02:29:49.790Z,-1.00
2018-03-22T02:32:16.221Z,-1.00
2018-03-22T02:34:42.619Z,-1.00
2018-03-22T02:37:09.026Z,-1.00
2018-03-22T02:39:36.252Z,-1.10
2018-03-22T02:42:02.687Z,-1.10
2018-03-22T02:44:29.066Z,-1.20
2018-03-22T02:46:55.525Z,-1.20
2018-03-22T02:49:21.962Z,-1.20
2018-03-22T02:51:48.359Z,-1.20
2018-03-22T02:54:14.753Z,-1.20
2018-03-22T02:56:41.119Z,-1.20
2018-03-22T02:59:07.634Z,-1.20
2018-03-22T03:01:34.021Z,-1.20
2018-03-22T03:04:00.390Z,-1.20
2018-03-22T03:06:26.774Z,-1.20
2018-03-22T03:08:53.240Z,-1.20
2018-03-22T03:11:19.647Z,-1.30
2018-03-22T03:13:46.151Z,-1.30
2018-03-22T03:16:12.569Z,-1.20
2018-03-22T03:18:38.955Z,-1.20
2018-03-22T03:21:05.361Z,-1.20
2018-03-22T03:23:32.478Z,-1.20
2018-03-22T03:25:58.865Z,-1.30
2018-03-22T03:28:25.258Z,-1.20
2018-03-22T03:30:52.370Z,-1.30
2018-03-22T03:33:18.741Z,-1.30
2018-03-22T03:35:45.929Z,-1.30
2018-03-22T03:38:12.306Z,-1.30
2018-03-22T03:40:38.703Z,-1.30
2018-03-22T03:43:05.120Z,-1.30
2018-03-22T03:45:32.237Z,-1.30
2018-03-22T03:47:59.365Z,-1.20
2018-03-22T03:50:25.770Z,-1.30
2018-03-22T03:52:52.154Z,-1.30
2018-03-22T03:55:18.570Z,-1.20
2018-03-22T03:57:45.785Z,-1.30
2018-03-22T04:00:12.182Z,-1.30
2018-03-22T04:02:38.542Z,-1.30
2018-03-22T04:05:04.940Z,-1.30
2018-03-22T04:07:31.321Z,-1.30
2018-03-22T04:09:57.690Z,-1.30
2018-03-22T04:12:24.042Z,-1.20
2018-03-22T04:14:50.454Z,-1.20
2018-03-22T04:17:17.582Z,-1.20
2018-03-22T04:19:44.730Z,-1.20
2018-03-22T04:22:11.951Z,-1.30
2018-03-22T04:24:38.341Z,-1.30
2018-03-22T04:27:04.763Z,-1.20
2018-03-22T04:29:31.213Z,-1.20
2018-03-22T04:31:57.596Z,-1.20
2018-03-22T04:34:24.005Z,-1.20
2018-03-22T04:36:50.411Z,-1.20
2018-03-22T04:39:16.795Z,-1.20
2018-03-22T04:41:44.019Z,-1.20
2018-03-22T04:44:10.457Z,-1.20
2018-03-22T04:46:36.898Z,-1.20
2018-03-22T04:49:03.312Z,-1.30
2018-03-22T04:51:29.712Z,-1.30
2018-03-22T04:53:56.117Z,-1.30
2018-03-22T04:56:22.641Z,-1.30
2018-03-22T04:58:49.021Z,-1.30
2018-03-22T05:01:15.462Z,-1.30
2018-03-22T05:03:41.858Z,-1.30
2018-03-22T05:06:08.231Z,-1.30
2018-03-22T05:08:34.610Z,-1.20
2018-03-22T05:11:01.009Z,-1.20
2018-03-22T05:13:27.497Z,-1.20
2018-03-22T05:15:53.887Z,-1.20
2018-03-22T05:18:21.026Z,-1.10
2018-03-22T05:20:47.413Z,-1.20
2018-03-22T05:23:13.829Z,-1.10
2018-03-22T05:25:40.266Z,-1.10
2018-03-22T05:28:06.707Z,-1.00
2018-03-22T05:30:33.185Z,-0.90
2018-03-22T05:32:59.542Z,-0.90
2018-03-22T05:35:26.029Z,-0.80
2018-03-22T05:37:52.653Z,-0.90
2018-03-22T05:40:19.117Z,-0.80
2018-03-22T05:42:45.501Z,-0.80
2018-03-22T05:45:11.932Z,-0.80
2018-03-22T05:47:38.305Z,-0.80
2018-03-22T05:50:05.455Z,-0.70
2018-03-22T05:52:31.936Z,-0.70
2018-03-22T05:54:58.370Z,-0.70
2018-03-22T05:57:24.742Z,-0.60
2018-03-22T05:59:51.127Z,-0.60
2018-03-22T06:02:17.553Z,-0.60
2018-03-22T06:04:43.985Z,-0.60
2018-03-22T06:07:10.374Z,-0.70
2018-03-22T06:09:36.814Z,-0.70
2018-03-22T06:12:04.071Z,-0.60
2018-03-22T06:14:31.242Z,-0.50
2018-03-22T06:16:57.614Z,-0.50
2018-03-22T06:19:24.050Z,-0.60
2018-03-22T06:21:50.414Z,-0.60
2018-03-22T06:24:16.916Z,-0.40
2018-03-22T06:26:43.299Z,-0.30
2018-03-22T06:29:10.453Z,-0.10
2018-03-22T06:31:36.872Z,-0.10
2018-03-22T06:34:03.250Z,0.00
2018-03-22T06:36:29.741Z,0.00
2018-03-22T06:38:56.149Z,0.00
2018-03-22T06:41:23.337Z,0.30
2018-03-22T06:43:49.728Z,0.30
2018-03-22T06:46:17.013Z,0.60
2018-03-22T06:48:43.441Z,0.60
2018-03-22T06:51:09.874Z,0.70
2018-03-22T06:53:36.312Z,0.80
2018-03-22T06:56:02.843Z,0.80
2018-03-22T06:58:29.211Z,0.80
2018-03-22T07:00:55.622Z,0.90
2018-03-22T07:03:22.023Z,1.00
2018-03-22T07:05:48.405Z,1.10
2018-03-22T07:08:14.817Z,1.20
2018-03-22T07:10:41.183Z,1.20
2018-03-22T07:13:08.389Z,1.30
2018-03-22T07:15:34.785Z,1.30
2018-03-22T07:18:01.312Z,1.40
2018-03-22T07:20:28.433Z,1.40
2018-03-22T07:22:54.866Z,1.40
2018-03-22T07:25:21.318Z,1.50
2018-03-22T07:27:48.472Z,1.70
2018-03-22T07:30:14.842Z,1.70
2018-03-22T07:32:41.256Z,1.80
2018-03-22T07:35:07.663Z,1.90
2018-03-22T07:37:34.168Z,2.00
2018-03-22T07:40:00.609Z,2.00
2018-03-22T07:42:27.741Z,2.10
2018-03-22T07:44:54.173Z,2.10
2018-03-22T07:47:20.579Z,2.10
2018-03-22T07:49:47.018Z,2.10
2018-03-22T07:52:13.405Z,2.20
2018-03-22T07:54:39.832Z,2.20
2018-03-22T07:57:06.932Z,2.50
2018-03-22T07:59:33.396Z,2.50
2018-03-22T08:02:00.537Z,2.50
2018-03-22T08:04:26.915Z,2.50
2018-03-22T08:06:53.326Z,2.50
2018-03-22T08:09:20.423Z,2.70
2018-03-22T08:11:46.854Z,2.70
2018-03-22T08:14:13.269Z,2.60
2018-03-22T08:16:39.717Z,2.70
2018-03-22T08:19:06.166Z,2.70
2018-03-22T08:21:32.584Z,2.80
2018-03-22T08:23:58.983Z,3.00
2018-03-22T08:26:25.386Z,3.20
2018-03-22T08:28:52.558Z,3.40
2018-03-22T08:31:18.953Z,3.40
2018-03-22T08:33:45.334Z,3.50
2018-03-22T08:36:11.797Z,3.60
2018-03-22T08:38:38.946Z,3.70
2018-03-22T08:41:05.344Z,3.70
2018-03-22T08:43:31.757Z,3.50
2018-03-22T08:45:58.156Z,3.40
2018-03-22T08:48:25.341Z,3.60
2018-03-22T08:50:51.738Z,3.60
2018-03-22T08:53:18.937Z,3.90
2018-03-22T08:55:45.304Z,3.80
2018-03-22T08:58:11.785Z,4.00
2018-03-22T09:00:38.187Z,4.10
2018-03-22T09:03:04.582Z,4.20
2018-03-22T09:05:31.111Z,4.40
2018-03-22T09:07:57.537Z,4.40
2018-03-22T09:10:24.817Z,4.60
2018-03-22T09:12:51.218Z,4.60
2018-03-22T09:15:17.744Z,4.70
2018-03-22T09:17:44.165Z,4.60
2018-03-22T09:20:10.581Z,4.50
2018-03-22T09:22:36.989Z,4.40
2018-03-22T09:25:04.246Z,4.40
2018-03-22T09:27:30.672Z,4.40
2018-03-22T09:29:57.867Z,4.70
2018-03-22T09:32:24.347Z,4.70
2018-03-22T09:34:50.799Z,4.90
2018-03-22T09:37:17.134Z,5.10
2018-03-22T09:39:43.568Z,5.20
2018-03-22T09:42:09.974Z,5.30
2018-03-22T09:44:37.124Z,5.60
2018-03-22T09:47:04.293Z,5.60
2018-03-22T09:49:30.666Z,5.60
2018-03-22T09:51:57.285Z,5.70
2018-03-22T09:54:23.638Z,5.70
2018-03-22T09:56:50.184Z,5.70
2018-03-22T09:59:16.552Z,5.30
2018-03-22T10:01:43.015Z,5.10
2018-03-22T10:04:09.402Z,5.10
2018-03-22T10:06:36.528Z,4.90
2018-03-22T10:09:03.030Z,4.90
2018-03-22T10:11:29.419Z,5.00
2018-03-22T10:13:55.857Z,5.00
2018-03-22T10:16:22.260Z,5.10
2018-03-22T10:18:49.441Z,5.00
2018-03-22T10:21:15.835Z,5.00
2018-03-22T10:23:42.205Z,5.10
2018-03-22T10:26:08.615Z,5.20
2018-03-22T10:28:35.789Z,5.30
2018-03-22T10:31:02.188Z,5.30
2018-03-22T10:33:29.461Z,5.50
2018-03-22T10:35:55.946Z,5.50
2018-03-22T10:38:22.316Z,5.40
2018-03-22T10:40:49.437Z,5.30
2018-03-22T10:43:15.862Z,5.30
2018-03-22T10:45:42.246Z,5.40
2018-03-22T10:48:08.689Z,5.50
2018-03-22T10:50:35.067Z,5.70
2018-03-22T10:53:01.510Z,5.60
2018-03-22T10:55:28.681Z,5.30
2018-03-22T10:57:55.111Z,5.30
2018-03-22T11:00:27.481Z,5.30
2018-03-22T11:02:55.769Z,5.20
2018-03-22T11:05:22.199Z,5.30
2018-03-22T11:07:48.593Z,5.20
2018-03-22T11:10:15.754Z,5.30
2018-03-22T11:12:42.863Z,5.30
2018-03-22T11:15:09.291Z,5.30
2018-03-22T11:17:35.672Z,5.30
2018-03-22T11:20:02.104Z,5.30
2018-03-22T11:22:28.547Z,5.20
2018-03-22T11:24:54.982Z,5.40
2018-03-22T11:27:21.491Z,5.60
2018-03-22T11:29:48.658Z,5.90
2018-03-22T11:32:15.078Z,5.90
2018-03-22T11:34:41.437Z,5.70
2018-03-22T11:37:07.835Z,5.50
2018-03-22T11:39:34.968Z,5.30
2018-03-22T11:42:01.438Z,5.30
2018-03-22T11:44:27.879Z,5.00
2018-03-22T11:46:54.384Z,4.80
2018-03-22T11:49:20.779Z,5.00
2018-03-22T11:51:47.183Z,4.90
2018-03-22T11:54:13.598Z,4.80
2018-03-22T11:56:39.988Z,5.00
2018-03-22T11:59:07.154Z,5.30
2018-03-22T12:01:33.626Z,5.20
2018-03-22T12:04:00.180Z,5.50
2018-03-22T12:06:26.618Z,5.60
2018-03-22T12:08:53.038Z,5.60
2018-03-22T12:11:19.463Z,5.50
2018-03-22T12:13:45.946Z,5.30
2018-03-22T12:16:12.394Z,4.90
2018-03-22T12:18:38.774Z,4.80
2018-03-22T12:21:05.174Z,4.70
2018-03-22T12:23:31.570Z,4.80
2018-03-22T12:25:58.756Z,5.00
2018-03-22T12:28:25.153Z,4.90
2018-03-22T12:30:52.300Z,5.20
2018-03-22T12:33:18.753Z,5.10
2018-03-22T12:35:45.249Z,5.30
2018-03-22T12:38:11.672Z,5.30
2018-03-22T12:40:38.027Z,5.20
2018-03-22T12:43:04.430Z,5.20
2018-03-22T12:45:30.844Z,5.00
2018-03-22T12:47:57.376Z,5.10
2018-03-22T12:50:23.747Z,5.00
2018-03-22T12:52:51.047Z,4.90
2018-03-22T12:55:17.446Z,5.00
2018-03-22T12:57:43.921Z,5.00
2018-03-22T13:00:10.323Z,5.00
2018-03-22T13:02:36.768Z,5.00
2018-03-22T13:05:03.162Z,5.10
2018-03-22T13:07:30.326Z,5.00
2018-03-22T13:09:56.681Z,5.00
2018-03-22T13:12:23.041Z,5.00
2018-03-22T13:14:49.487Z,5.00
2018-03-22T13:17:15.929Z,5.00
2018-03-22T13:19:43.086Z,4.70
2018-03-22T13:22:09.526Z,4.70
2018-03-22T13:24:36.060Z,4.70
2018-03-22T13:27:02.530Z,4.80
2018-03-22T13:29:28.994Z,4.70
2018-03-22T13:31:55.605Z,4.70
2018-03-22T13:34:22.869Z,4.70
2018-03-22T13:36:49.272Z,4.70
2018-03-22T13:39:15.650Z,4.80
2018-03-22T13:41:42.827Z,4.60
2018-03-22T13:44:09.447Z,4.60
2018-03-22T13:46:35.874Z,4.70
2018-03-22T13:49:03.086Z,4.80
2018-03-22T13:51:29.437Z,4.70
2018-03-22T13:53:55.887Z,4.70
2018-03-22T13:56:23.039Z,4.60
2018-03-22T13:58:49.464Z,4.60
2018-03-22T14:01:16.611Z,4.60
2018-03-22T14:03:43.806Z,4.70
2018-03-22T14:06:10.198Z,4.70
2018-03-22T14:08:36.658Z,4.60
2018-03-22T14:11:03.046Z,4.60
2018-03-22T14:13:29.492Z,4.60
2018-03-22T14:15:55.895Z,4.60
2018-03-22T14:18:22.289Z,4.70
2018-03-22T14:20:48.665Z,4.80
2018-03-22T14:23:15.068Z,4.80
2018-03-22T14:25:41.495Z,4.70
2018-03-22T14:28:07.973Z,4.70
2018-03-22T14:30:35.118Z,4.70
2018-03-22T14:33:01.557Z,4.70
2018-03-22T14:35:27.993Z,4.70
2018-03-22T14:37:55.206Z,4.60
2018-03-22T14:40:21.625Z,4.60
2018-03-22T14:42:48.034Z,4.50
2018-03-22T14:45:14.445Z,4.50
2018-03-22T14:47:40.910Z,4.40
2018-03-22T14:50:07.302Z,4.30
2018-03-22T14:52:33.747Z,4.30
2018-03-22T14:55:00.184Z,4.20
2018-03-22T14:57:26.601Z,4.20
2018-03-22T14:59:53.060Z,4.00
2018-03-22T15:02:19.487Z,3.90
2018-03-22T15:04:46.047Z,3.90
2018-03-22T15:07:12.607Z,3.90
2018-03-22T15:09:39.071Z,3.90
2018-03-22T15:12:05.465Z,3.90
2018-03-22T15:14:31.980Z,3.80
2018-03-22T15:16:58.346Z,3.80
2018-03-22T15:19:24.847Z,3.80
2018-03-22T15:21:51.399Z,3.90
2018-03-22T15:24:17.835Z,3.90
2018-03-22T15:26:44.337Z,3.90
2018-03-22T15:29:10.798Z,3.80
2018-03-22T15:31:38.106Z,3.90
2018-03-22T15:34:04.558Z,3.80
2018-03-22T15:36:31.027Z,3.80
2018-03-22T15:38:58.230Z,3.80
2018-03-22T15:41:24.946Z,3.80
2018-03-22T15:43:51.610Z,3.70
2018-03-22T15:46:18.048Z,3.80
2018-03-22T15:48:44.748Z,3.80
2018-03-22T15:51:11.185Z,3.90
2018-03-22T15:53:37.645Z,3.90
2018-03-22T15:56:04.117Z,3.90
2018-03-22T15:58:31.329Z,3.70
2018-03-22T16:00:57.759Z,3.70
2018-03-22T16:03:24.158Z,3.70
2018-03-22T16:05:50.628Z,3.70
2018-03-22T16:08:17.116Z,3.60
2018-03-22T16:10:43.749Z,3.60
2018-03-22T16:13:10.250Z,3.70
2018-03-22T16:15:36.682Z,3.70
2018-03-22T16:18:03.126Z,3.60
2018-03-22T16:20:29.546Z,3.50
2018-03-22T16:22:55.948Z,3.50
2018-03-22T16:25:22.375Z,3.50
2018-03-22T16:27:48.806Z,3.50
2018-03-22T16:30:15.258Z,3.60
2018-03-22T16:32:41.691Z,3.60
2018-03-22T16:35:08.111Z,3.60
2018-03-22T16:37:34.546Z,3.60
2018-03-22T16:40:01.036Z,3.50
2018-03-22T16:42:27.541Z,3.30
2018-03-22T16:44:53.951Z,3.10
2018-03-22T16:47:20.417Z,3.20
2018-03-22T16:49:46.857Z,3.20
2018-03-22T16:52:13.299Z,3.10
2018-03-22T16:54:39.819Z,3.10
2018-03-22T16:57:06.263Z,3.10
2018-03-22T16:59:32.760Z,3.10
2018-03-22T17:01:59.160Z,3.10
2018-03-22T17:04:25.635Z,3.00
2018-03-22T17:06:51.991Z,3.00
2018-03-22T17:09:18.422Z,3.10
2018-03-22T17:11:44.841Z,3.10
2018-03-22T17:14:11.234Z,3.20
2018-03-22T17:16:38.386Z,3.20
2018-03-22T17:19:05.544Z,3.20
2018-03-22T17:21:32.777Z,3.30
2018-03-22T17:23:59.150Z,3.30
2018-03-22T17:26:25.606Z,3.20
2018-03-22T17:28:52.073Z,3.20
2018-03-22T17:31:18.521Z,3.10
2018-03-22T17:33:44.919Z,3.10
2018-03-22T17:36:11.422Z,3.20
2018-03-22T17:38:37.863Z,3.20
2018-03-22T17:41:04.310Z,3.20
2018-03-22T17:43:30.732Z,3.20
2018-03-22T17:45:57.272Z,3.20
2018-03-22T17:48:23.873Z,3.20
2018-03-22T17:50:50.428Z,3.20
2018-03-22T17:53:16.930Z,3.10
2018-03-22T17:55:43.359Z,3.10
2018-03-22T17:58:10.643Z,3.20
2018-03-22T18:00:37.092Z,3.20
2018-03-22T18:03:03.645Z,3.20
2018-03-22T18:05:30.195Z,3.20
2018-03-22T18:07:56.614Z,3.20
2018-03-22T18:10:23.091Z,3.20
2018-03-22T18:12:49.622Z,3.20
2018-03-22T18:15:16.119Z,3.30
2018-03-22T18:17:42.574Z,3.20
2018-03-22T18:20:09.076Z,3.20
2018-03-22T18:22:35.522Z,3.20
2018-03-22T18:25:02.028Z,3.20
2018-03-22T18:27:28.525Z,3.20
2018-03-22T18:29:55.002Z,3.20
2018-03-22T18:32:21.482Z,3.20
2018-03-22T18:34:48.017Z,3.20
2018-03-22T18:37:14.523Z,3.20
2018-03-22T18:39:41.003Z,3.20
2018-03-22T18:42:07.431Z,3.20
2018-03-22T18:44:34.034Z,3.20
2018-03-22T18:47:01.278Z,3.10
2018-03-22T18:49:27.756Z,3.20
2018-03-22T18:51:54.253Z,3.10
2018-03-22T18:54:21.406Z,3.20
2018-03-22T18:56:48.613Z,3.30
2018-03-22T18:59:15.215Z,3.30
2018-03-22T19:01:42.592Z,3.40
2018-03-22T19:04:09.054Z,3.30
2018-03-22T19:06:35.520Z,3.40
2018-03-22T19:09:02.801Z,3.20
2018-03-22T19:11:29.231Z,3.20
2018-03-22T19:13:55.665Z,3.30
2018-03-22T19:16:22.104Z,3.20
2018-03-22T19:18:48.565Z,3.20
2018-03-22T19:21:15.030Z,3.30
2018-03-22T19:23:42.195Z,3.20
2018-03-22T19:26:08.622Z,3.20
2018-03-22T19:28:35.101Z,3.20
2018-03-22T19:31:01.548Z,3.20
2018-03-22T19:33:28.897Z,3.20
2018-03-22T19:35:55.339Z,3.30
2018-03-22T19:38:22.512Z,3.30
2018-03-22T19:40:49.023Z,3.30
2018-03-22T19:43:16.219Z,3.30
2018-03-22T19:45:42.672Z,3.40
2018-03-22T19:48:09.104Z,3.40
2018-03-22T19:50:35.564Z,3.40
2018-03-22T19:53:01.962Z,3.30
2018-03-22T19:55:28.611Z,3.30
2018-03-22T19:57:55.029Z,3.30
2018-03-22T20:00:21.825Z,3.30
2018-03-22T20:02:48.287Z,3.30
2018-03-22T20:05:14.715Z,3.30
2018-03-22T20:07:41.167Z,3.30
2018-03-22T20:10:07.598Z,3.40
2018-03-22T20:12:34.072Z,3.40
2018-03-22T20:15:00.516Z,3.30
2018-03-22T20:17:27.027Z,3.40
2018-03-22T20:19:53.495Z,3.40
2018-03-22T20:22:19.972Z,3.40
2018-03-22T20:24:46.419Z,3.40
2018-03-22T20:27:12.977Z,3.40
2018-03-22T20:29:39.509Z,3.40
2018-03-22T20:32:06.019Z,3.40
2018-03-22T20:34:32.573Z,3.40
2018-03-22T20:36:59.081Z,3.50
2018-03-22T20:39:26.749Z,3.50
2018-03-22T20:41:53.939Z,3.50
2018-03-22T20:44:20.477Z,3.50
2018-03-22T20:46:46.962Z,3.40
2018-03-22T20:49:13.399Z,3.30
2018-03-22T20:51:39.913Z,3.20
2018-03-22T20:54:06.532Z,3.30
2018-03-22T20:56:33.085Z,3.30
2018-03-22T20:58:59.678Z,3.10
2018-03-22T21:01:26.090Z,3.20
2018-03-22T21:03:52.561Z,3.20
2018-03-22T21:06:18.991Z,3.10
2018-03-22T21:08:45.447Z,3.20
2018-03-22T21:11:11.963Z,3.30
2018-03-22T21:13:38.460Z,3.40
2018-03-22T21:16:05.732Z,3.40
2018-03-22T21:18:32.250Z,3.40
2018-03-22T21:20:58.730Z,3.50
2018-03-22T21:23:25.142Z,3.40
2018-03-22T21:25:51.668Z,3.40
2018-03-22T21:28:18.065Z,3.30
2018-03-22T21:30:46.466Z,3.40
2018-03-22T21:33:13.021Z,3.30
2018-03-22T21:35:39.621Z,3.30
2018-03-22T21:38:06.278Z,3.30
2018-03-22T21:40:33.459Z,3.40
2018-03-22T21:42:59.944Z,3.40
2018-03-22T21:45:26.445Z,3.40
2018-03-22T21:47:52.862Z,3.50
2018-03-22T21:50:19.340Z,3.50
2018-03-22T21:52:45.912Z,3.40
2018-03-22T21:55:12.426Z,3.10
2018-03-22T21:57:38.909Z,3.20
2018-03-22T22:00:05.422Z,3.20
2018-03-22T22:02:31.887Z,3.30
2018-03-22T22:04:59.108Z,3.40
2018-03-22T22:07:25.549Z,3.40
2018-03-22T22:09:52.034Z,3.50
2018-03-22T22:12:18.439Z,3.50
2018-03-22T22:14:45.626Z,3.50
2018-03-22T22:17:12.106Z,3.50
2018-03-22T22:19:39.425Z,3.60
2018-03-22T22:22:05.916Z,3.60
2018-03-22T22:24:32.338Z,3.60
2018-03-22T22:26:59.546Z,3.60
2018-03-22T22:29:25.985Z,3.50
2018-03-22T22:31:52.464Z,3.60
2018-03-22T22:34:18.850Z,3.60
2018-03-22T22:36:45.251Z,3.60
2018-03-22T22:39:11.791Z,3.60
2018-03-22T22:41:38.260Z,3.60
2018-03-22T22:44:04.718Z,3.60
2018-03-22T22:46:31.861Z,3.60
2018-03-22T22:48:59.046Z,3.70
2018-03-22T22:51:25.429Z,3.60
2018-03-22T22:53:51.889Z,3.70
2018-03-22T22:56:18.377Z,3.80
2018-03-22T22:58:44.828Z,3.80
2018-03-22T23:01:11.276Z,3.80
2018-03-22T23:03:38.439Z,3.80
2018-03-22T23:06:04.840Z,3.80
2018-03-22T23:08:32.013Z,3.70
2018-03-22T23:10:58.502Z,3.70
2018-03-22T23:13:24.939Z,3.70
2018-03-22T23:15:51.346Z,3.60
2018-03-22T23:18:17.835Z,3.60
2018-03-22T23:20:45.085Z,3.60
2018-03-22T23:25:44.889Z,3.60
2018-03-22T23:28:12.118Z,3.60
2018-03-22T23:30:38.727Z,3.50
2018-03-22T23:33:05.369Z,3.50
2018-03-22T23:35:32.556Z,3.60
2018-03-22T23:37:59.093Z,3.50
2018-03-22T23:40:26.334Z,3.40
2018-03-22T23:42:52.844Z,3.40
2018-03-22T23:45:19.272Z,3.40
2018-03-22T23:47:45.746Z,3.50
2018-03-22T23:50:12.931Z,3.50
2018-03-22T23:52:39.361Z,3.50
2018-03-22T23:55:06.527Z,3.40
2018-03-22T23:57:32.931Z,3.40
2018-03-22T23:59:59.314Z,3.30
